sensor_id;sensor_type;location;lat;lon;timestamp;temperature;humidity
17968;DHT22;9109;48.050;11.696;2023-11-22T00:00:01;7.60;99.90
17968;DHT22;9109;48.050;11.696;2023-11-22T00:03:03;7.60;99.90
17968;DHT22;9109;48.050;11.696;2023-11-22T00:06:07;7.60;99.90
17968;DHT22;9109;48.050;11.696;2023-11-22T00:09:08;7.70;99.90
17968;DHT22;9109;48.050;11.696;2023-11-22T00:12:13;7.70;99.90
17968;DHT22;9109;48.050;11.696;2023-11-22T00:15:17;7.70;99.90
17968;DHT22;9109;48.050;11.696;2023-11-22T00:18:19;7.70;99.90
17968;DHT22;9109;48.050;11.696;2023-11-22T00:21:23;7.70;99.90
17968;DHT22;9109;48.050;11.696;2023-11-22T00:24:25;7.70;99.90
17968;DHT22;9109;48.050;11.696;2023-11-22T00:27:28;7.60;99.90
17968;DHT22;9109;48.050;11.696;2023-11-22T00:30:31;7.50;99.90
17968;DHT22;9109;48.050;11.696;2023-11-22T00:33:34;7.50;99.90
17968;DHT22;9109;48.050;11.696;2023-11-22T00:36:38;7.50;99.90
17968;DHT22;9109;48.050;11.696;2023-11-22T00:39:42;7.50;99.90
17968;DHT22;9109;48.050;11.696;2023-11-22T00:42:47;7.50;99.90
17968;DHT22;9109;48.050;11.696;2023-11-22T00:45:49;7.40;99.90
17968;DHT22;9109;48.050;11.696;2023-11-22T00:48:52;7.40;99.90
17968;DHT22;9109;48.050;11.696;2023-11-22T00:51:54;7.40;99.90
17968;DHT22;9109;48.050;11.696;2023-11-22T00:54:58;7.40;99.90
17968;DHT22;9109;48.050;11.696;2023-11-22T00:58:03;7.30;99.90
17968;DHT22;9109;48.050;11.696;2023-11-22T01:01:05;7.20;99.90
17968;DHT22;9109;48.050;11.696;2023-11-22T01:04:09;7.20;99.90
17968;DHT22;9109;48.050;11.696;2023-11-22T01:07:12;7.30;99.90
17968;DHT22;9109;48.050;11.696;2023-11-22T01:10:15;7.30;99.90
17968;DHT22;9109;48.050;11.696;2023-11-22T01:13:18;7.20;99.90
17968;DHT22;9109;48.050;11.696;2023-11-22T01:16:22;7.30;99.90
17968;DHT22;9109;48.050;11.696;2023-11-22T01:19:24;7.20;99.90
17968;DHT22;9109;48.050;11.696;2023-11-22T01:22:26;7.20;99.90
17968;DHT22;9109;48.050;11.696;2023-11-22T01:25:29;7.20;99.90
17968;DHT22;9109;48.050;11.696;2023-11-22T01:28:32;7.20;99.90
17968;DHT22;9109;48.050;11.696;2023-11-22T01:31:34;7.30;99.90
17968;DHT22;9109;48.050;11.696;2023-11-22T01:34:42;7.30;99.90
17968;DHT22;9109;48.050;11.696;2023-11-22T01:37:44;7.20;99.90
17968;DHT22;9109;48.050;11.696;2023-11-22T01:40:47;7.30;99.90
17968;DHT22;9109;48.050;11.696;2023-11-22T01:43:50;7.20;99.90
17968;DHT22;9109;48.050;11.696;2023-11-22T01:46:52;7.20;99.90
17968;DHT22;9109;48.050;11.696;2023-11-22T01:49:56;7.10;99.90
17968;DHT22;9109;48.050;11.696;2023-11-22T01:52:59;7.10;99.90
17968;DHT22;9109;48.050;11.696;2023-11-22T01:56:02;7.20;99.90
17968;DHT22;9109;48.050;11.696;2023-11-22T01:59:06;7.20;99.90
17968;DHT22;9109;48.050;11.696;2023-11-22T02:02:08;7.20;99.90
17968;DHT22;9109;48.050;11.696;2023-11-22T02:05:10;7.20;99.90
17968;DHT22;9109;48.050;11.696;2023-11-22T02:08:13;7.10;99.90
17968;DHT22;9109;48.050;11.696;2023-11-22T02:11:17;7.10;99.90
17968;DHT22;9109;48.050;11.696;2023-11-22T02:14:26;7.20;99.90
17968;DHT22;9109;48.050;11.696;2023-11-22T02:17:30;6.90;99.90
17968;DHT22;9109;48.050;11.696;2023-11-22T02:20:32;6.40;99.90
17968;DHT22;9109;48.050;11.696;2023-11-22T02:23:37;6.20;99.90
17968;DHT22;9109;48.050;11.696;2023-11-22T02:26:45;6.20;99.90
17968;DHT22;9109;48.050;11.696;2023-11-22T02:29:47;6.20;99.90
17968;DHT22;9109;48.050;11.696;2023-11-22T02:32:49;6.20;99.90
17968;DHT22;9109;48.050;11.696;2023-11-22T02:35:52;5.90;99.90
17968;DHT22;9109;48.050;11.696;2023-11-22T02:38:56;5.70;99.90
17968;DHT22;9109;48.050;11.696;2023-11-22T02:42:01;5.70;99.90
17968;DHT22;9109;48.050;11.696;2023-11-22T02:45:06;5.60;99.90
17968;DHT22;9109;48.050;11.696;2023-11-22T02:48:09;5.30;99.90
17968;DHT22;9109;48.050;11.696;2023-11-22T02:51:13;5.20;99.90
17968;DHT22;9109;48.050;11.696;2023-11-22T02:54:17;5.30;99.90
17968;DHT22;9109;48.050;11.696;2023-11-22T02:57:19;5.40;99.90
17968;DHT22;9109;48.050;11.696;2023-11-22T03:00:23;5.40;99.90
17968;DHT22;9109;48.050;11.696;2023-11-22T03:03:28;5.40;99.90
17968;DHT22;9109;48.050;11.696;2023-11-22T03:06:29;5.10;99.90
17968;DHT22;9109;48.050;11.696;2023-11-22T03:09:33;4.80;99.90
17968;DHT22;9109;48.050;11.696;2023-11-22T03:12:37;4.90;99.90
17968;DHT22;9109;48.050;11.696;2023-11-22T03:15:39;4.80;99.90
17968;DHT22;9109;48.050;11.696;2023-11-22T03:18:41;4.90;99.90
17968;DHT22;9109;48.050;11.696;2023-11-22T03:21:44;4.70;99.90
17968;DHT22;9109;48.050;11.696;2023-11-22T03:24:48;4.70;99.90
17968;DHT22;9109;48.050;11.696;2023-11-22T03:27:50;4.70;99.90
17968;DHT22;9109;48.050;11.696;2023-11-22T03:30:54;4.60;99.90
17968;DHT22;9109;48.050;11.696;2023-11-22T03:33:59;4.50;99.90
17968;DHT22;9109;48.050;11.696;2023-11-22T03:37:02;4.60;99.90
17968;DHT22;9109;48.050;11.696;2023-11-22T03:40:08;4.50;99.90
17968;DHT22;9109;48.050;11.696;2023-11-22T03:43:11;4.50;99.90
17968;DHT22;9109;48.050;11.696;2023-11-22T03:46:17;4.50;99.90
17968;DHT22;9109;48.050;11.696;2023-11-22T03:49:20;4.40;99.90
17968;DHT22;9109;48.050;11.696;2023-11-22T03:52:22;4.50;99.90
17968;DHT22;9109;48.050;11.696;2023-11-22T03:55:25;4.50;99.90
17968;DHT22;9109;48.050;11.696;2023-11-22T03:58:27;4.50;99.90
17968;DHT22;9109;48.050;11.696;2023-11-22T04:01:29;4.40;99.90
17968;DHT22;9109;48.050;11.696;2023-11-22T04:04:32;4.40;99.90
17968;DHT22;9109;48.050;11.696;2023-11-22T04:07:40;4.40;99.90
17968;DHT22;9109;48.050;11.696;2023-11-22T04:10:48;4.50;99.90
17968;DHT22;9109;48.050;11.696;2023-11-22T04:13:51;4.60;99.90
17968;DHT22;9109;48.050;11.696;2023-11-22T04:16:53;4.40;99.90
17968;DHT22;9109;48.050;11.696;2023-11-22T04:19:55;4.40;99.90
17968;DHT22;9109;48.050;11.696;2023-11-22T04:22:57;4.20;99.90
17968;DHT22;9109;48.050;11.696;2023-11-22T04:26:02;4.20;99.90
17968;DHT22;9109;48.050;11.696;2023-11-22T04:29:05;4.10;99.90
17968;DHT22;9109;48.050;11.696;2023-11-22T04:32:07;4.20;99.90
17968;DHT22;9109;48.050;11.696;2023-11-22T04:35:09;4.10;99.90
17968;DHT22;9109;48.050;11.696;2023-11-22T04:38:11;4.20;99.90
17968;DHT22;9109;48.050;11.696;2023-11-22T04:41:18;4.20;99.90
17968;DHT22;9109;48.050;11.696;2023-11-22T04:44:20;4.30;99.90
17968;DHT22;9109;48.050;11.696;2023-11-22T04:47:23;4.30;99.90
17968;DHT22;9109;48.050;11.696;2023-11-22T04:50:26;4.40;99.90
17968;DHT22;9109;48.050;11.696;2023-11-22T04:53:27;4.30;99.90
17968;DHT22;9109;48.050;11.696;2023-11-22T04:56:30;4.30;99.90
17968;DHT22;9109;48.050;11.696;2023-11-22T04:59:32;4.40;99.90
17968;DHT22;9109;48.050;11.696;2023-11-22T05:02:34;4.50;99.90
17968;DHT22;9109;48.050;11.696;2023-11-22T05:05:37;4.70;99.90
17968;DHT22;9109;48.050;11.696;2023-11-22T05:08:39;4.90;99.90
17968;DHT22;9109;48.050;11.696;2023-11-22T05:11:42;5.00;99.90
17968;DHT22;9109;48.050;11.696;2023-11-22T05:14:52;5.00;99.90
17968;DHT22;9109;48.050;11.696;2023-11-22T05:17:53;5.00;99.90
17968;DHT22;9109;48.050;11.696;2023-11-22T05:20:55;5.00;99.90
17968;DHT22;9109;48.050;11.696;2023-11-22T05:23:57;4.80;99.90
17968;DHT22;9109;48.050;11.696;2023-11-22T05:27:02;4.60;99.90
17968;DHT22;9109;48.050;11.696;2023-11-22T05:30:06;4.50;99.90
17968;DHT22;9109;48.050;11.696;2023-11-22T05:33:08;4.40;99.90
17968;DHT22;9109;48.050;11.696;2023-11-22T05:36:10;4.20;99.90
17968;DHT22;9109;48.050;11.696;2023-11-22T05:39:15;4.20;99.90
17968;DHT22;9109;48.050;11.696;2023-11-22T05:42:23;4.10;99.90
17968;DHT22;9109;48.050;11.696;2023-11-22T05:45:25;4.10;99.90
17968;DHT22;9109;48.050;11.696;2023-11-22T05:48:27;4.00;99.90
17968;DHT22;9109;48.050;11.696;2023-11-22T05:51:29;4.00;99.90
17968;DHT22;9109;48.050;11.696;2023-11-22T05:54:35;4.00;99.90
17968;DHT22;9109;48.050;11.696;2023-11-22T05:57:39;4.00;99.90
17968;DHT22;9109;48.050;11.696;2023-11-22T06:00:41;4.00;99.90
17968;DHT22;9109;48.050;11.696;2023-11-22T06:03:43;4.00;99.90
17968;DHT22;9109;48.050;11.696;2023-11-22T06:06:45;4.10;99.90
17968;DHT22;9109;48.050;11.696;2023-11-22T06:09:49;4.10;99.90
17968;DHT22;9109;48.050;11.696;2023-11-22T06:12:55;4.00;99.90
17968;DHT22;9109;48.050;11.696;2023-11-22T06:16:00;3.90;99.90
17968;DHT22;9109;48.050;11.696;2023-11-22T06:19:02;3.90;99.90
17968;DHT22;9109;48.050;11.696;2023-11-22T06:22:04;3.90;99.90
17968;DHT22;9109;48.050;11.696;2023-11-22T06:25:08;3.90;99.90
17968;DHT22;9109;48.050;11.696;2023-11-22T06:28:11;3.90;99.90
17968;DHT22;9109;48.050;11.696;2023-11-22T06:31:13;3.90;99.90
17968;DHT22;9109;48.050;11.696;2023-11-22T06:34:15;3.80;99.90
17968;DHT22;9109;48.050;11.696;2023-11-22T06:37:19;3.80;99.90
17968;DHT22;9109;48.050;11.696;2023-11-22T06:40:21;3.90;99.90
17968;DHT22;9109;48.050;11.696;2023-11-22T06:43:24;4.00;99.90
17968;DHT22;9109;48.050;11.696;2023-11-22T06:46:26;4.10;99.90
17968;DHT22;9109;48.050;11.696;2023-11-22T06:49:28;4.10;99.90
17968;DHT22;9109;48.050;11.696;2023-11-22T06:52:32;4.20;99.90
17968;DHT22;9109;48.050;11.696;2023-11-22T06:55:35;4.20;99.90
17968;DHT22;9109;48.050;11.696;2023-11-22T06:58:44;4.00;99.90
17968;DHT22;9109;48.050;11.696;2023-11-22T07:01:46;3.90;99.90
17968;DHT22;9109;48.050;11.696;2023-11-22T07:04:51;3.80;99.90
17968;DHT22;9109;48.050;11.696;2023-11-22T07:07:58;3.80;99.90
17968;DHT22;9109;48.050;11.696;2023-11-22T07:14:09;4.00;99.90
17968;DHT22;9109;48.050;11.696;2023-11-22T07:17:13;3.90;99.90
17968;DHT22;9109;48.050;11.696;2023-11-22T07:20:17;4.00;99.90
17968;DHT22;9109;48.050;11.696;2023-11-22T07:23:23;4.10;99.90
17968;DHT22;9109;48.050;11.696;2023-11-22T07:26:28;4.10;99.90
17968;DHT22;9109;48.050;11.696;2023-11-22T07:29:32;4.10;99.90
17968;DHT22;9109;48.050;11.696;2023-11-22T07:32:36;4.00;99.90
17968;DHT22;9109;48.050;11.696;2023-11-22T07:35:42;4.10;99.90
17968;DHT22;9109;48.050;11.696;2023-11-22T07:38:48;4.10;99.90
17968;DHT22;9109;48.050;11.696;2023-11-22T07:41:50;4.20;99.90
17968;DHT22;9109;48.050;11.696;2023-11-22T07:44:58;4.30;99.90
17968;DHT22;9109;48.050;11.696;2023-11-22T07:48:02;4.30;99.90
17968;DHT22;9109;48.050;11.696;2023-11-22T07:51:04;4.30;99.90
17968;DHT22;9109;48.050;11.696;2023-11-22T07:54:11;4.30;99.90
17968;DHT22;9109;48.050;11.696;2023-11-22T07:57:18;4.20;99.90
17968;DHT22;9109;48.050;11.696;2023-11-22T08:00:23;4.20;99.90
17968;DHT22;9109;48.050;11.696;2023-11-22T08:03:25;4.10;99.90
17968;DHT22;9109;48.050;11.696;2023-11-22T08:06:31;4.30;99.90
17968;DHT22;9109;48.050;11.696;2023-11-22T08:09:33;4.40;99.90
17968;DHT22;9109;48.050;11.696;2023-11-22T08:12:38;4.40;99.90
17968;DHT22;9109;48.050;11.696;2023-11-22T08:15:45;4.30;99.90
17968;DHT22;9109;48.050;11.696;2023-11-22T08:18:47;4.20;99.90
17968;DHT22;9109;48.050;11.696;2023-11-22T08:21:50;4.10;99.90
17968;DHT22;9109;48.050;11.696;2023-11-22T08:24:52;4.20;99.90
17968;DHT22;9109;48.050;11.696;2023-11-22T08:27:54;4.20;99.90
17968;DHT22;9109;48.050;11.696;2023-11-22T08:31:02;4.00;99.90
17968;DHT22;9109;48.050;11.696;2023-11-22T08:34:10;3.90;99.90
17968;DHT22;9109;48.050;11.696;2023-11-22T08:37:11;3.90;99.90
17968;DHT22;9109;48.050;11.696;2023-11-22T08:40:16;4.00;99.90
17968;DHT22;9109;48.050;11.696;2023-11-22T08:43:20;3.90;99.90
17968;DHT22;9109;48.050;11.696;2023-11-22T08:46:25;3.90;99.90
17968;DHT22;9109;48.050;11.696;2023-11-22T08:49:30;4.00;99.90
17968;DHT22;9109;48.050;11.696;2023-11-22T08:52:31;4.00;99.90
17968;DHT22;9109;48.050;11.696;2023-11-22T08:55:34;4.00;99.90
17968;DHT22;9109;48.050;11.696;2023-11-22T08:58:43;4.10;99.90
17968;DHT22;9109;48.050;11.696;2023-11-22T09:01:47;4.30;99.90
17968;DHT22;9109;48.050;11.696;2023-11-22T09:04:51;4.30;99.90
17968;DHT22;9109;48.050;11.696;2023-11-22T09:07:54;4.30;99.90
17968;DHT22;9109;48.050;11.696;2023-11-22T09:11:00;4.10;99.90
17968;DHT22;9109;48.050;11.696;2023-11-22T09:14:06;4.00;99.90
17968;DHT22;9109;48.050;11.696;2023-11-22T09:17:14;3.90;99.90
17968;DHT22;9109;48.050;11.696;2023-11-22T09:20:19;3.80;99.90
17968;DHT22;9109;48.050;11.696;2023-11-22T09:23:21;3.60;99.90
17968;DHT22;9109;48.050;11.696;2023-11-22T09:26:23;3.50;99.90
17968;DHT22;9109;48.050;11.696;2023-11-22T09:29:26;3.50;99.90
17968;DHT22;9109;48.050;11.696;2023-11-22T09:32:32;3.50;99.90
17968;DHT22;9109;48.050;11.696;2023-11-22T09:35:38;3.50;99.90
17968;DHT22;9109;48.050;11.696;2023-11-22T09:38:41;3.60;99.90
17968;DHT22;9109;48.050;11.696;2023-11-22T09:41:52;3.40;99.90
17968;DHT22;9109;48.050;11.696;2023-11-22T09:44:54;3.30;99.90
17968;DHT22;9109;48.050;11.696;2023-11-22T09:47:59;3.40;99.90
17968;DHT22;9109;48.050;11.696;2023-11-22T09:51:08;3.40;99.90
17968;DHT22;9109;48.050;11.696;2023-11-22T09:54:13;3.30;99.90
17968;DHT22;9109;48.050;11.696;2023-11-22T09:57:21;3.20;99.90
17968;DHT22;9109;48.050;11.696;2023-11-22T10:00:30;3.30;99.90
17968;DHT22;9109;48.050;11.696;2023-11-22T10:03:33;3.30;99.90
17968;DHT22;9109;48.050;11.696;2023-11-22T10:06:36;3.40;99.90
17968;DHT22;9109;48.050;11.696;2023-11-22T10:09:38;3.50;99.90
17968;DHT22;9109;48.050;11.696;2023-11-22T10:12:46;3.50;99.90
17968;DHT22;9109;48.050;11.696;2023-11-22T10:15:50;3.40;99.90
17968;DHT22;9109;48.050;11.696;2023-11-22T10:19:00;3.50;99.90
17968;DHT22;9109;48.050;11.696;2023-11-22T10:22:03;3.60;99.90
17968;DHT22;9109;48.050;11.696;2023-11-22T10:25:09;3.60;99.90
17968;DHT22;9109;48.050;11.696;2023-11-22T10:28:16;3.70;99.90
17968;DHT22;9109;48.050;11.696;2023-11-22T10:31:20;3.70;99.90
17968;DHT22;9109;48.050;11.696;2023-11-22T10:34:26;3.80;99.90
17968;DHT22;9109;48.050;11.696;2023-11-22T10:37:29;3.90;99.90
17968;DHT22;9109;48.050;11.696;2023-11-22T10:40:31;4.00;99.90
17968;DHT22;9109;48.050;11.696;2023-11-22T10:43:34;4.00;99.90
17968;DHT22;9109;48.050;11.696;2023-11-22T10:46:39;4.00;99.90
17968;DHT22;9109;48.050;11.696;2023-11-22T10:49:46;3.90;99.90
17968;DHT22;9109;48.050;11.696;2023-11-22T10:52:51;4.00;99.90
17968;DHT22;9109;48.050;11.696;2023-11-22T10:56:04;4.10;99.90
17968;DHT22;9109;48.050;11.696;2023-11-22T10:59:14;4.20;99.90
17968;DHT22;9109;48.050;11.696;2023-11-22T11:02:22;4.20;99.90
17968;DHT22;9109;48.050;11.696;2023-11-22T11:05:39;4.00;99.90
17968;DHT22;9109;48.050;11.696;2023-11-22T11:08:46;4.00;99.90
17968;DHT22;9109;48.050;11.696;2023-11-22T11:11:49;4.10;99.90
17968;DHT22;9109;48.050;11.696;2023-11-22T11:14:56;4.10;99.90
17968;DHT22;9109;48.050;11.696;2023-11-22T11:18:04;4.10;99.90
17968;DHT22;9109;48.050;11.696;2023-11-22T11:21:09;4.10;99.90
17968;DHT22;9109;48.050;11.696;2023-11-22T11:24:17;4.10;99.90
17968;DHT22;9109;48.050;11.696;2023-11-22T11:27:20;4.10;99.90
17968;DHT22;9109;48.050;11.696;2023-11-22T11:30:45;4.10;99.90
17968;DHT22;9109;48.050;11.696;2023-11-22T11:33:57;4.20;99.90
17968;DHT22;9109;48.050;11.696;2023-11-22T11:37:01;4.20;99.90
17968;DHT22;9109;48.050;11.696;2023-11-22T11:40:25;4.20;99.90
17968;DHT22;9109;48.050;11.696;2023-11-22T11:43:40;4.20;99.90
17968;DHT22;9109;48.050;11.696;2023-11-22T11:46:44;4.20;99.90
17968;DHT22;9109;48.050;11.696;2023-11-22T11:49:49;4.20;99.90
17968;DHT22;9109;48.050;11.696;2023-11-22T11:52:55;4.20;99.90
17968;DHT22;9109;48.050;11.696;2023-11-22T11:55:57;4.30;99.90
17968;DHT22;9109;48.050;11.696;2023-11-22T11:58:59;4.50;99.90
17968;DHT22;9109;48.050;11.696;2023-11-22T12:02:03;4.60;99.90
17968;DHT22;9109;48.050;11.696;2023-11-22T12:05:07;4.60;99.90
17968;DHT22;9109;48.050;11.696;2023-11-22T12:08:10;4.50;99.90
17968;DHT22;9109;48.050;11.696;2023-11-22T12:11:16;4.40;99.90
17968;DHT22;9109;48.050;11.696;2023-11-22T12:14:18;4.40;99.90
17968;DHT22;9109;48.050;11.696;2023-11-22T12:17:29;4.20;99.90
17968;DHT22;9109;48.050;11.696;2023-11-22T12:20:33;4.20;99.90
17968;DHT22;9109;48.050;11.696;2023-11-22T12:23:38;4.30;99.90
17968;DHT22;9109;48.050;11.696;2023-11-22T12:26:40;4.50;99.90
17968;DHT22;9109;48.050;11.696;2023-11-22T12:29:46;4.50;99.90
17968;DHT22;9109;48.050;11.696;2023-11-22T12:32:48;4.30;99.90
17968;DHT22;9109;48.050;11.696;2023-11-22T12:35:50;4.40;99.90
17968;DHT22;9109;48.050;11.696;2023-11-22T12:38:56;4.30;99.90
17968;DHT22;9109;48.050;11.696;2023-11-22T12:42:01;4.30;99.90
17968;DHT22;9109;48.050;11.696;2023-11-22T12:45:18;4.30;99.90
17968;DHT22;9109;48.050;11.696;2023-11-22T12:48:24;4.30;99.90
17968;DHT22;9109;48.050;11.696;2023-11-22T12:51:26;4.20;99.90
17968;DHT22;9109;48.050;11.696;2023-11-22T12:54:30;4.20;99.90
17968;DHT22;9109;48.050;11.696;2023-11-22T12:57:37;4.20;99.90
17968;DHT22;9109;48.050;11.696;2023-11-22T13:00:41;4.20;99.90
17968;DHT22;9109;48.050;11.696;2023-11-22T13:03:43;4.30;99.90
17968;DHT22;9109;48.050;11.696;2023-11-22T13:06:45;4.30;99.90
17968;DHT22;9109;48.050;11.696;2023-11-22T13:09:53;4.40;99.90
17968;DHT22;9109;48.050;11.696;2023-11-22T13:12:57;4.30;99.90
17968;DHT22;9109;48.050;11.696;2023-11-22T13:16:01;4.20;99.90
17968;DHT22;9109;48.050;11.696;2023-11-22T13:19:06;4.20;99.90
17968;DHT22;9109;48.050;11.696;2023-11-22T13:22:09;4.20;99.90
17968;DHT22;9109;48.050;11.696;2023-11-22T13:25:14;4.20;99.90
17968;DHT22;9109;48.050;11.696;2023-11-22T13:28:18;4.20;99.90
17968;DHT22;9109;48.050;11.696;2023-11-22T13:31:20;4.20;99.90
17968;DHT22;9109;48.050;11.696;2023-11-22T13:34:23;4.10;99.90
17968;DHT22;9109;48.050;11.696;2023-11-22T13:37:25;4.00;99.90
17968;DHT22;9109;48.050;11.696;2023-11-22T13:40:29;4.00;99.90
17968;DHT22;9109;48.050;11.696;2023-11-22T13:43:31;4.10;99.90
17968;DHT22;9109;48.050;11.696;2023-11-22T13:46:35;4.10;99.90
17968;DHT22;9109;48.050;11.696;2023-11-22T13:49:37;4.20;99.90
17968;DHT22;9109;48.050;11.696;2023-11-22T13:52:39;4.30;99.90
17968;DHT22;9109;48.050;11.696;2023-11-22T13:55:43;4.30;99.90
17968;DHT22;9109;48.050;11.696;2023-11-22T13:58:44;4.40;99.90
17968;DHT22;9109;48.050;11.696;2023-11-22T14:01:47;4.40;99.90
17968;DHT22;9109;48.050;11.696;2023-11-22T14:04:49;4.40;99.90
17968;DHT22;9109;48.050;11.696;2023-11-22T14:07:52;4.50;99.90
17968;DHT22;9109;48.050;11.696;2023-11-22T14:10:56;4.50;99.90
17968;DHT22;9109;48.050;11.696;2023-11-22T14:14:00;4.40;99.90
17968;DHT22;9109;48.050;11.696;2023-11-22T14:17:02;4.30;99.90
17968;DHT22;9109;48.050;11.696;2023-11-22T14:20:09;4.30;99.90
17968;DHT22;9109;48.050;11.696;2023-11-22T14:23:13;4.20;99.90
17968;DHT22;9109;48.050;11.696;2023-11-22T14:26:18;4.30;99.90
17968;DHT22;9109;48.050;11.696;2023-11-22T14:29:22;4.30;99.90
17968;DHT22;9109;48.050;11.696;2023-11-22T14:32:28;4.30;99.90
17968;DHT22;9109;48.050;11.696;2023-11-22T14:35:37;4.30;99.90
17968;DHT22;9109;48.050;11.696;2023-11-22T14:38:41;4.30;99.90
17968;DHT22;9109;48.050;11.696;2023-11-22T14:41:46;4.20;99.90
17968;DHT22;9109;48.050;11.696;2023-11-22T14:44:49;4.20;99.90
17968;DHT22;9109;48.050;11.696;2023-11-22T14:47:51;4.20;99.90
17968;DHT22;9109;48.050;11.696;2023-11-22T14:51:00;4.40;99.90
17968;DHT22;9109;48.050;11.696;2023-11-22T14:54:06;4.50;99.90
17968;DHT22;9109;48.050;11.696;2023-11-22T14:57:15;4.60;99.90
17968;DHT22;9109;48.050;11.696;2023-11-22T15:00:20;4.60;99.90
17968;DHT22;9109;48.050;11.696;2023-11-22T15:03:24;4.60;99.90
17968;DHT22;9109;48.050;11.696;2023-11-22T15:06:28;4.70;99.90
17968;DHT22;9109;48.050;11.696;2023-11-22T15:09:33;4.40;99.90
17968;DHT22;9109;48.050;11.696;2023-11-22T15:12:40;4.30;99.90
17968;DHT22;9109;48.050;11.696;2023-11-22T15:15:48;4.30;99.90
17968;DHT22;9109;48.050;11.696;2023-11-22T15:18:52;4.40;99.90
17968;DHT22;9109;48.050;11.696;2023-11-22T15:21:54;4.40;99.90
17968;DHT22;9109;48.050;11.696;2023-11-22T15:24:59;4.10;99.90
17968;DHT22;9109;48.050;11.696;2023-11-22T15:28:02;4.10;99.90
17968;DHT22;9109;48.050;11.696;2023-11-22T15:31:06;3.90;99.90
17968;DHT22;9109;48.050;11.696;2023-11-22T15:34:10;3.80;99.90
17968;DHT22;9109;48.050;11.696;2023-11-22T15:37:14;3.70;99.90
17968;DHT22;9109;48.050;11.696;2023-11-22T15:40:17;3.80;99.90
17968;DHT22;9109;48.050;11.696;2023-11-22T15:43:21;4.00;99.90
17968;DHT22;9109;48.050;11.696;2023-11-22T15:46:24;4.30;99.90
17968;DHT22;9109;48.050;11.696;2023-11-22T15:49:26;4.50;99.90
17968;DHT22;9109;48.050;11.696;2023-11-22T15:52:29;4.60;99.90
17968;DHT22;9109;48.050;11.696;2023-11-22T15:55:33;4.50;99.90
17968;DHT22;9109;48.050;11.696;2023-11-22T15:58:40;4.40;99.90
17968;DHT22;9109;48.050;11.696;2023-11-22T16:01:42;4.40;99.90
17968;DHT22;9109;48.050;11.696;2023-11-22T16:04:44;4.40;99.90
17968;DHT22;9109;48.050;11.696;2023-11-22T16:07:46;4.50;99.90
17968;DHT22;9109;48.050;11.696;2023-11-22T16:10:48;4.50;99.90
17968;DHT22;9109;48.050;11.696;2023-11-22T16:13:53;4.40;99.90
17968;DHT22;9109;48.050;11.696;2023-11-22T16:16:55;4.30;99.90
17968;DHT22;9109;48.050;11.696;2023-11-22T16:20:04;4.40;99.90
17968;DHT22;9109;48.050;11.696;2023-11-22T16:23:12;4.60;99.90
17968;DHT22;9109;48.050;11.696;2023-11-22T16:26:14;4.50;99.90
17968;DHT22;9109;48.050;11.696;2023-11-22T16:29:18;4.40;99.90
17968;DHT22;9109;48.050;11.696;2023-11-22T16:32:22;4.20;99.90
17968;DHT22;9109;48.050;11.696;2023-11-22T16:35:24;4.10;99.90
17968;DHT22;9109;48.050;11.696;2023-11-22T16:38:27;4.00;99.90
17968;DHT22;9109;48.050;11.696;2023-11-22T16:41:29;4.00;99.90
17968;DHT22;9109;48.050;11.696;2023-11-22T16:44:38;4.10;99.90
17968;DHT22;9109;48.050;11.696;2023-11-22T16:47:43;4.20;99.90
17968;DHT22;9109;48.050;11.696;2023-11-22T16:50:50;4.10;99.90
17968;DHT22;9109;48.050;11.696;2023-11-22T16:53:55;4.10;99.90
17968;DHT22;9109;48.050;11.696;2023-11-22T16:57:03;4.20;99.90
17968;DHT22;9109;48.050;11.696;2023-11-22T17:00:20;4.30;99.90
17968;DHT22;9109;48.050;11.696;2023-11-22T17:03:31;4.10;99.90
17968;DHT22;9109;48.050;11.696;2023-11-22T17:06:33;4.10;99.90
17968;DHT22;9109;48.050;11.696;2023-11-22T17:09:35;4.10;99.90
17968;DHT22;9109;48.050;11.696;2023-11-22T17:12:38;4.00;99.90
17968;DHT22;9109;48.050;11.696;2023-11-22T17:15:43;4.10;99.90
17968;DHT22;9109;48.050;11.696;2023-11-22T17:18:45;4.00;99.90
17968;DHT22;9109;48.050;11.696;2023-11-22T17:21:48;4.00;99.90
17968;DHT22;9109;48.050;11.696;2023-11-22T17:24:52;4.10;99.90
17968;DHT22;9109;48.050;11.696;2023-11-22T17:27:56;4.00;99.90
17968;DHT22;9109;48.050;11.696;2023-11-22T17:31:02;4.10;99.90
17968;DHT22;9109;48.050;11.696;2023-11-22T17:34:05;4.10;99.90
17968;DHT22;9109;48.050;11.696;2023-11-22T17:37:08;4.30;99.90
17968;DHT22;9109;48.050;11.696;2023-11-22T17:40:12;4.40;99.90
17968;DHT22;9109;48.050;11.696;2023-11-22T17:43:15;4.30;99.90
17968;DHT22;9109;48.050;11.696;2023-11-22T17:46:19;4.40;99.90
17968;DHT22;9109;48.050;11.696;2023-11-22T17:49:22;4.50;99.90
17968;DHT22;9109;48.050;11.696;2023-11-22T17:52:26;4.50;99.90
17968;DHT22;9109;48.050;11.696;2023-11-22T17:55:28;4.60;99.90
17968;DHT22;9109;48.050;11.696;2023-11-22T17:58:35;4.60;99.90
17968;DHT22;9109;48.050;11.696;2023-11-22T18:01:41;4.60;99.90
17968;DHT22;9109;48.050;11.696;2023-11-22T18:04:47;4.60;99.90
17968;DHT22;9109;48.050;11.696;2023-11-22T18:07:50;4.60;99.90
17968;DHT22;9109;48.050;11.696;2023-11-22T18:10:54;4.30;99.90
17968;DHT22;9109;48.050;11.696;2023-11-22T18:13:58;4.30;99.90
17968;DHT22;9109;48.050;11.696;2023-11-22T18:17:03;4.40;99.90
17968;DHT22;9109;48.050;11.696;2023-11-22T18:20:09;4.50;99.90
17968;DHT22;9109;48.050;11.696;2023-11-22T18:23:16;4.60;99.90
17968;DHT22;9109;48.050;11.696;2023-11-22T18:26:22;4.60;99.90
17968;DHT22;9109;48.050;11.696;2023-11-22T18:29:26;4.70;99.90
17968;DHT22;9109;48.050;11.696;2023-11-22T18:32:35;4.60;99.90
17968;DHT22;9109;48.050;11.696;2023-11-22T18:35:43;4.30;99.90
17968;DHT22;9109;48.050;11.696;2023-11-22T18:38:51;4.20;99.90
17968;DHT22;9109;48.050;11.696;2023-11-22T18:41:56;4.40;99.90
17968;DHT22;9109;48.050;11.696;2023-11-22T18:44:59;4.30;99.90
17968;DHT22;9109;48.050;11.696;2023-11-22T18:48:13;4.30;99.90
17968;DHT22;9109;48.050;11.696;2023-11-22T18:51:17;4.40;99.90
17968;DHT22;9109;48.050;11.696;2023-11-22T18:54:20;4.50;99.90
17968;DHT22;9109;48.050;11.696;2023-11-22T18:57:26;4.50;99.90
17968;DHT22;9109;48.050;11.696;2023-11-22T19:00:33;4.60;99.90
17968;DHT22;9109;48.050;11.696;2023-11-22T19:03:45;4.70;99.90
17968;DHT22;9109;48.050;11.696;2023-11-22T19:06:56;4.70;99.90
17968;DHT22;9109;48.050;11.696;2023-11-22T19:09:59;4.80;99.90
17968;DHT22;9109;48.050;11.696;2023-11-22T19:13:03;4.80;99.90
17968;DHT22;9109;48.050;11.696;2023-11-22T19:16:06;4.60;99.90
17968;DHT22;9109;48.050;11.696;2023-11-22T19:19:12;4.60;99.90
17968;DHT22;9109;48.050;11.696;2023-11-22T19:22:17;4.70;99.90
17968;DHT22;9109;48.050;11.696;2023-11-22T19:25:19;4.60;99.90
17968;DHT22;9109;48.050;11.696;2023-11-22T19:28:22;4.70;99.90
17968;DHT22;9109;48.050;11.696;2023-11-22T19:31:24;4.70;99.90
17968;DHT22;9109;48.050;11.696;2023-11-22T19:34:28;4.70;99.90
17968;DHT22;9109;48.050;11.696;2023-11-22T19:37:32;4.70;99.90
17968;DHT22;9109;48.050;11.696;2023-11-22T19:40:36;4.70;99.90
17968;DHT22;9109;48.050;11.696;2023-11-22T19:43:38;4.70;99.90